Time;durP1;ratioP1;P1;durP2;ratioP2;P2;SDS_P1;SDS_P2;PMS_P1;PMS_P2;Temp;Humidity;BMP_temperature;BMP_pressure;BME280_temperature;BME280_humidity;BME280_pressure;Samples;Min_cycle;Max_cycle;Signal;HPM_P1;HPM_P2
2024/01/20 00:00:13;;;;;;;31.13;15.30;;;-1.20;99.90;;;;;;5038001;28;20179;-85
2024/01/20 00:02:39;;;;;;;30.15;14.52;;;-1.20;99.90;;;;;;5038530;28;20329;-85
2024/01/20 00:05:05;;;;;;;26.33;13.43;;;-1.20;99.90;;;;;;5032848;28;20331;-85
2024/01/20 00:07:31;;;;;;;27.90;12.70;;;-1.30;99.90;;;;;;5038860;28;20182;-86
2024/01/20 00:09:56;;;;;;;35.63;14.80;;;-1.30;99.90;;;;;;5035180;28;20210;-85
2024/01/20 00:12:22;;;;;;;24.00;13.17;;;-1.40;99.90;;;;;;5068970;22;20221;-88
2024/01/20 00:15:08;;;;;;;28.00;14.47;;;-1.40;99.90;;;;;;5037513;28;20182;-90
2024/01/20 00:17:35;;;;;;;29.65;14.57;;;-1.40;1.00;;;;;;5044512;28;20202;-88
2024/01/20 00:20:06;;;;;;;39.70;14.70;;;-1.50;99.90;;;;;;5046133;28;20182;-88
2024/01/20 00:22:34;;;;;;;29.40;14.10;;;-1.50;99.90;;;;;;5037454;28;20229;-89
2024/01/20 00:25:08;;;;;;;37.55;14.68;;;-1.50;99.90;;;;;;5035017;28;20707;-88
2024/01/20 00:27:34;;;;;;;27.30;13.98;;;-1.50;99.90;;;;;;5034299;28;20668;-89
2024/01/20 00:30:00;;;;;;;28.30;13.83;;;-1.60;99.90;;;;;;5044638;28;20182;-89
2024/01/20 00:32:29;;;;;;;35.88;14.30;;;-1.60;99.90;;;;;;5051435;28;20456;-88
2024/01/20 00:34:57;;;;;;;30.90;14.20;;;-1.60;99.90;;;;;;5052427;28;20883;-88
2024/01/20 00:37:23;;;;;;;32.95;13.90;;;-1.70;99.90;;;;;;5040171;28;20189;-87
2024/01/20 00:39:48;;;;;;;31.57;15.03;;;-1.70;99.90;;;;;;5051840;28;20182;-89
2024/01/20 00:42:14;;;;;;;35.80;17.00;;;-1.70;1.00;;;;;;5035505;28;20351;-89
2024/01/20 00:44:43;;;;;;;32.63;15.30;;;-1.70;1.00;;;;;;5031369;28;20226;-89
2024/01/20 00:47:22;;;;;;;38.53;16.38;;;-1.70;1.00;;;;;;5035242;28;20193;-89
2024/01/20 00:49:48;;;;;;;28.70;14.80;;;-1.70;1.00;;;;;;5034564;28;20264;-88
2024/01/20 00:52:51;;;;;;;27.97;15.27;;;-1.80;1.00;;;;;;5032320;28;20230;-89
2024/01/20 00:55:23;;;;;;;31.80;15.80;;;-1.80;1.00;;;;;;5032907;28;20190;-89
2024/01/20 00:57:54;;;;;;;32.42;16.23;;;-1.80;1.00;;;;;;5032898;28;20285;-92
2024/01/20 01:00:20;;;;;;;40.55;15.57;;;-1.80;1.00;;;;;;5030510;28;20186;-89
2024/01/20 01:02:55;;;;;;;28.52;14.20;;;-1.80;1.00;;;;;;5034010;28;20706;-87
2024/01/20 01:06:05;;;;;;;29.80;14.55;;;-1.80;1.00;;;;;;5033447;28;20189;-89
2024/01/20 01:08:52;;;;;;;33.03;14.30;;;-1.80;1.00;;;;;;5030531;28;20174;-87
2024/01/20 01:11:38;;;;;;;29.40;14.18;;;-1.80;1.00;;;;;;5037648;28;20271;-86
2024/01/20 01:20:30;;;;;;;37.78;14.40;;;-1.80;1.00;;;;;;4989627;28;20192;-86
2024/01/20 01:23:04;;;;;;;35.55;15.05;;;-1.90;1.00;;;;;;4975136;28;20247;-88
2024/01/20 01:25:32;;;;;;;25.95;12.95;;;-1.80;1.00;;;;;;4995407;28;20235;-86
2024/01/20 01:28:11;;;;;;;34.85;17.25;;;-1.90;1.00;;;;;;5001779;28;20248;-86
2024/01/20 01:30:49;;;;;;;35.08;16.75;;;-1.90;1.00;;;;;;5034446;28;20177;-88
2024/01/20 01:33:15;;;;;;;22.80;10.60;;;-1.90;1.00;;;;;;5042753;28;20281;-86
2024/01/20 01:35:41;;;;;;;26.80;12.93;;;-1.90;1.00;;;;;;5051919;28;20650;-86
2024/01/20 01:38:31;;;;;;;28.30;14.27;;;-1.90;1.00;;;;;;5035461;28;20421;-86
2024/01/20 01:41:00;;;;;;;28.98;14.20;;;-1.90;1.00;;;;;;5030915;28;20451;-86
2024/01/20 01:46:26;;;;;;;28.17;13.52;;;-1.90;1.00;;;;;;5055780;28;20193;-86
2024/01/20 01:48:52;;;;;;;34.50;12.50;;;-1.90;1.00;;;;;;5041501;28;20651;-88
2024/01/20 01:51:34;;;;;;;28.33;14.88;;;-1.90;1.00;;;;;;5032078;28;20209;-89
2024/01/20 01:54:08;;;;;;;31.08;13.45;;;-1.90;1.00;;;;;;5026888;28;20186;-88
2024/01/20 01:56:38;;;;;;;31.08;13.55;;;-1.90;1.00;;;;;;5038877;28;20190;-88
2024/01/20 01:59:09;;;;;;;23.40;11.45;;;-1.90;1.00;;;;;;5055864;28;20186;-86
2024/01/20 02:01:48;;;;;;;28.08;13.13;;;-1.90;1.00;;;;;;5037215;28;20214;-88
2024/01/20 02:04:14;;;;;;;24.95;12.60;;;-1.90;1.00;;;;;;5036877;28;20711;-86
2024/01/20 02:06:40;;;;;;;21.60;12.33;;;-1.90;99.90;;;;;;5051712;28;20197;-87
2024/01/20 02:09:12;;;;;;;35.10;13.90;;;-1.90;99.90;;;;;;5037642;28;20460;-87
2024/01/20 02:11:46;;;;;;;27.17;13.90;;;-2.00;99.90;;;;;;5039318;28;20456;-86
2024/01/20 02:14:12;;;;;;;28.45;12.43;;;-2.00;99.90;;;;;;5055363;28;20193;-87
2024/01/20 02:16:38;;;;;;;25.48;13.27;;;-2.10;99.90;;;;;;5033562;28;20232;-87
2024/01/20 02:19:35;;;;;;;25.57;12.30;;;-2.10;99.90;;;;;;5033139;28;20202;-93
2024/01/20 02:22:24;;;;;;;26.58;12.60;;;-2.10;99.90;;;;;;5032116;28;20614;-90
2024/01/20 02:24:50;;;;;;;30.45;12.95;;;-2.20;99.90;;;;;;5050573;28;20252;-87
2024/01/20 02:27:24;;;;;;;29.90;14.32;;;-2.20;99.90;;;;;;5034807;28;20188;-87
2024/01/20 02:30:04;;;;;;;26.40;12.75;;;-2.20;99.90;;;;;;5035326;28;20561;-87
2024/01/20 02:32:39;;;;;;;31.73;12.52;;;-2.30;99.90;;;;;;5035732;28;20299;-90
2024/01/20 02:35:18;;;;;;;29.85;12.77;;;-2.30;99.90;;;;;;5053207;28;20182;-86
2024/01/20 02:37:52;;;;;;;24.30;12.80;;;-2.30;99.90;;;;;;5034221;28;20183;-88
2024/01/20 02:40:26;;;;;;;27.88;12.23;;;-2.30;99.90;;;;;;5032942;28;20174;-87
2024/01/20 02:42:54;;;;;;;24.85;12.15;;;-2.30;99.90;;;;;;5052879;28;20201;-89
2024/01/20 02:45:20;;;;;;;36.40;13.77;;;-2.30;99.90;;;;;;5035701;28;20709;-87
2024/01/20 02:47:51;;;;;;;33.77;15.93;;;-2.40;99.90;;;;;;5036291;28;20194;-87
2024/01/20 02:50:25;;;;;;;27.02;14.02;;;-2.40;99.90;;;;;;5032798;28;20434;-88
2024/01/20 02:52:54;;;;;;;28.48;13.68;;;-2.40;99.90;;;;;;5044691;28;20198;-87
2024/01/20 02:55:26;;;;;;;26.90;11.93;;;-2.40;99.90;;;;;;5037727;28;20198;-87
2024/01/20 02:57:51;;;;;;;25.73;12.50;;;-2.40;99.90;;;;;;5035907;28;20178;-88
2024/01/20 03:00:17;;;;;;;31.33;12.80;;;-2.40;99.90;;;;;;5038203;28;20285;-87
2024/01/20 03:02:43;;;;;;;26.03;12.10;;;-2.50;99.90;;;;;;5040297;28;20210;-87
2024/01/20 03:05:14;;;;;;;26.33;13.07;;;-2.40;99.90;;;;;;5041759;28;20426;-86
2024/01/20 03:07:53;;;;;;;25.65;11.82;;;-2.50;99.90;;;;;;5056029;28;20656;-87
2024/01/20 03:10:19;;;;;;;25.67;12.32;;;-2.40;99.90;;;;;;5056384;28;20181;-86
2024/01/20 03:12:44;;;;;;;23.47;12.80;;;-2.40;1.00;;;;;;5041956;28;20592;-88
2024/01/20 03:15:18;;;;;;;24.90;10.53;;;-2.40;1.00;;;;;;5040125;28;20186;-88
2024/01/20 03:17:44;;;;;;;27.65;11.98;;;-2.40;99.90;;;;;;5058881;28;20186;-87
2024/01/20 03:20:12;;;;;;;22.60;12.10;;;-2.40;99.90;;;;;;5054379;28;20628;-87
2024/01/20 03:22:38;;;;;;;26.58;13.45;;;-2.40;99.90;;;;;;5042058;28;20216;-89
2024/01/20 03:25:09;;;;;;;26.00;12.40;;;-2.40;99.90;;;;;;5028569;28;20187;-86
2024/01/20 03:27:40;;;;;;;29.33;13.80;;;-2.40;99.90;;;;;;5051741;28;20193;-88
2024/01/20 03:30:06;;;;;;;29.33;13.23;;;-2.50;99.90;;;;;;5056856;28;20205;-90
2024/01/20 03:32:32;;;;;;;31.10;12.82;;;-2.50;99.90;;;;;;5059015;28;20205;-86
2024/01/20 03:35:01;;;;;;;32.80;14.60;;;-2.50;99.90;;;;;;5058654;28;20186;-87
2024/01/20 03:37:26;;;;;;;30.65;13.20;;;-2.60;99.90;;;;;;5041808;28;20190;-86
2024/01/20 03:39:55;;;;;;;28.47;12.80;;;-2.60;99.90;;;;;;5055645;28;20562;-86
2024/01/20 03:42:22;;;;;;;26.40;12.98;;;-2.60;99.90;;;;;;5041724;28;20715;-86
2024/01/20 03:44:48;;;;;;;40.65;15.30;;;-2.70;99.90;;;;;;5056735;28;20782;-87
2024/01/20 03:47:13;;;;;;;23.73;11.90;;;-2.70;99.90;;;;;;5051009;28;20192;-87
2024/01/20 03:49:45;;;;;;;27.40;12.80;;;-2.70;99.90;;;;;;5056407;28;20649;-87
2024/01/20 03:52:10;;;;;;;27.17;10.50;;;-2.70;99.90;;;;;;5039982;28;20225;-88
2024/01/20 03:54:36;;;;;;;33.97;13.57;;;-2.70;99.90;;;;;;5056056;28;20229;-87
2024/01/20 03:57:01;;;;;;;28.57;12.10;;;-2.70;1.00;;;;;;5037283;28;20201;-88
2024/01/20 03:59:27;;;;;;;27.90;14.07;;;-2.70;1.00;;;;;;5035515;28;20194;-87
2024/01/20 04:01:53;;;;;;;24.50;12.90;;;-2.70;1.00;;;;;;5039083;28;20732;-87
2024/01/20 04:04:18;;;;;;;26.20;11.20;;;-2.70;1.00;;;;;;5038532;28;20201;-87
2024/01/20 04:06:44;;;;;;;31.67;13.10;;;-2.70;1.00;;;;;;5055952;28;20201;-89
2024/01/20 04:09:11;;;;;;;26.83;11.80;;;-2.60;1.00;;;;;;5040124;28;20240;-87
2024/01/20 04:11:37;;;;;;;32.70;12.85;;;-2.60;1.00;;;;;;5037873;28;20468;-87
2024/01/20 04:14:02;;;;;;;29.23;13.83;;;-2.70;99.90;;;;;;5040401;28;20202;-88
2024/01/20 04:16:29;;;;;;;22.00;12.60;;;-2.70;1.00;;;;;;5056537;28;20189;-86
2024/01/20 04:19:00;;;;;;;23.90;11.85;;;-2.70;1.00;;;;;;5042342;28;20277;-89
2024/01/20 04:21:26;;;;;;;25.42;11.95;;;-2.70;99.90;;;;;;5032517;28;21411;-86
2024/01/20 04:23:51;;;;;;;32.60;12.80;;;-2.70;99.90;;;;;;5041206;28;20748;-87
2024/01/20 04:26:17;;;;;;;24.20;10.77;;;-2.70;1.00;;;;;;5057534;28;20212;-89
2024/01/20 04:28:42;;;;;;;23.30;11.80;;;-2.70;1.00;;;;;;5054284;28;20175;-90
2024/01/20 04:31:10;;;;;;;27.50;13.37;;;-2.80;1.00;;;;;;5038142;28;20208;-88
2024/01/20 04:33:36;;;;;;;27.10;12.68;;;-2.80;99.90;;;;;;5036321;28;20186;-86
2024/01/20 04:36:02;;;;;;;26.20;12.57;;;-2.80;99.90;;;;;;5034768;28;20182;-86
2024/01/20 04:38:28;;;;;;;28.00;13.33;;;-2.80;99.90;;;;;;5037002;28;20527;-87
2024/01/20 04:40:56;;;;;;;22.50;12.23;;;-2.80;99.90;;;;;;5037363;28;20423;-89
2024/01/20 04:43:21;;;;;;;26.08;11.77;;;-2.90;99.90;;;;;;5033273;28;20293;-86
2024/01/20 04:45:47;;;;;;;25.93;12.27;;;-2.90;99.90;;;;;;5039510;28;20591;-86
2024/01/20 04:48:13;;;;;;;24.63;11.73;;;-2.90;99.90;;;;;;5035551;28;20190;-87
2024/01/20 04:50:38;;;;;;;31.83;11.70;;;-3.00;99.90;;;;;;5052331;28;20178;-88
2024/01/20 04:53:04;;;;;;;25.63;12.90;;;-3.00;99.90;;;;;;5037653;28;20225;-87
2024/01/20 04:55:29;;;;;;;18.80;11.87;;;-3.00;99.90;;;;;;5036213;28;20189;-87
2024/01/20 04:57:55;;;;;;;26.47;13.40;;;-3.10;99.90;;;;;;5055602;28;20190;-87
2024/01/20 05:00:21;;;;;;;29.07;13.00;;;-3.10;99.90;;;;;;5051548;28;20182;-88
2024/01/20 05:02:46;;;;;;;28.33;13.07;;;-3.10;99.90;;;;;;5037203;28;20210;-87
2024/01/20 05:05:12;;;;;;;32.90;13.97;;;-3.10;99.90;;;;;;5033895;28;20182;-86
2024/01/20 05:07:37;;;;;;;25.03;12.97;;;-3.10;99.90;;;;;;5035909;28;20186;-87
2024/01/20 05:10:03;;;;;;;25.47;12.70;;;-3.10;99.90;;;;;;5037427;28;20212;-86
2024/01/20 05:12:29;;;;;;;37.40;14.73;;;-3.10;99.90;;;;;;5054960;28;20236;-87
2024/01/20 05:14:55;;;;;;;30.43;12.93;;;-3.20;99.90;;;;;;5031784;28;20444;-87
2024/01/20 05:17:21;;;;;;;34.05;14.60;;;-3.20;99.90;;;;;;5031465;28;20221;-87
2024/01/20 05:19:46;;;;;;;32.90;13.90;;;-3.20;99.90;;;;;;5055884;28;20694;-87
2024/01/20 05:22:12;;;;;;;35.57;13.73;;;-3.20;1.00;;;;;;5040358;28;20285;-88
2024/01/20 05:24:37;;;;;;;29.60;13.37;;;-3.20;99.90;;;;;;5037278;28;20211;-87
2024/01/20 05:27:03;;;;;;;25.70;12.37;;;-3.20;1.00;;;;;;5053953;28;20217;-87
2024/01/20 05:29:29;;;;;;;33.88;14.55;;;-3.30;1.00;;;;;;5058261;28;20570;-87
2024/01/20 05:31:55;;;;;;;28.00;14.23;;;-3.30;1.00;;;;;;5042600;28;20208;-88
2024/01/20 05:34:20;;;;;;;28.93;14.07;;;-3.30;1.00;;;;;;5043084;28;20223;-89
2024/01/20 05:36:46;;;;;;;26.20;12.80;;;-3.30;99.90;;;;;;5060042;28;20194;-88
2024/01/20 05:39:11;;;;;;;32.70;13.90;;;-3.30;1.00;;;;;;5059841;28;20186;-87
2024/01/20 05:41:37;;;;;;;37.03;15.10;;;-3.30;1.00;;;;;;5037214;28;20248;-89
2024/01/20 05:44:02;;;;;;;24.80;12.70;;;-3.30;1.00;;;;;;5058977;28;20202;-87
2024/01/20 05:46:28;;;;;;;28.57;15.10;;;-3.30;99.90;;;;;;5058787;28;20184;-87
2024/01/20 05:48:54;;;;;;;30.03;13.70;;;-3.40;99.90;;;;;;5039992;28;20428;-90
2024/01/20 05:51:19;;;;;;;33.83;13.97;;;-3.40;99.90;;;;;;5055822;28;20687;-88
2024/01/20 05:53:45;;;;;;;28.13;15.20;;;-3.40;99.90;;;;;;5035465;28;20208;-87
2024/01/20 05:56:11;;;;;;;28.15;14.30;;;-3.40;99.90;;;;;;5039065;28;20221;-87
2024/01/20 05:58:37;;;;;;;29.57;13.77;;;-3.50;99.90;;;;;;5060175;28;20190;-87
2024/01/20 06:01:02;;;;;;;27.03;14.00;;;-3.50;99.90;;;;;;5041882;28;20263;-88
2024/01/20 06:03:28;;;;;;;22.33;12.60;;;-3.50;99.90;;;;;;5043380;28;20240;-88
2024/01/20 06:05:54;;;;;;;28.17;14.47;;;-3.50;99.90;;;;;;5042612;28;20186;-88
2024/01/20 06:08:19;;;;;;;22.20;12.25;;;-3.50;99.90;;;;;;5044274;28;20178;-87
2024/01/20 06:10:45;;;;;;;29.87;13.83;;;-3.50;99.90;;;;;;5059847;28;20181;-89
2024/01/20 06:13:11;;;;;;;30.07;13.00;;;-3.50;99.90;;;;;;5059561;28;20248;-88
2024/01/20 06:15:36;;;;;;;26.80;13.63;;;-3.50;99.90;;;;;;5059369;28;20190;-88
2024/01/20 06:18:03;;;;;;;27.13;13.33;;;-3.60;99.90;;;;;;5061365;28;20263;-87
2024/01/20 06:20:28;;;;;;;27.00;13.63;;;-3.60;99.90;;;;;;5062779;28;20243;-89
2024/01/20 06:22:54;;;;;;;28.97;13.23;;;-3.60;99.90;;;;;;5060919;28;20206;-87
2024/01/20 06:25:19;;;;;;;23.50;12.50;;;-3.60;99.90;;;;;;5061741;28;20190;-87
2024/01/20 06:27:45;;;;;;;32.10;13.90;;;-3.60;99.90;;;;;;5061857;28;20190;-88
2024/01/20 06:30:11;;;;;;;28.80;12.53;;;-3.60;99.90;;;;;;5060043;28;20202;-87
2024/01/20 06:32:37;;;;;;;28.80;11.50;;;-3.60;99.90;;;;;;5062668;28;20586;-87
2024/01/20 06:35:03;;;;;;;23.73;12.20;;;-3.70;99.90;;;;;;5057993;28;20290;-88
2024/01/20 06:37:28;;;;;;;28.97;14.30;;;-3.70;99.90;;;;;;5057891;28;20225;-88
2024/01/20 06:39:54;;;;;;;23.67;12.40;;;-3.70;99.90;;;;;;5060447;28;20419;-88
2024/01/20 06:42:19;;;;;;;25.23;11.87;;;-3.70;99.90;;;;;;5046692;28;20261;-89
2024/01/20 06:44:45;;;;;;;32.57;13.20;;;-3.70;99.90;;;;;;5058960;28;20243;-87
2024/01/20 06:47:11;;;;;;;27.80;12.97;;;-3.70;99.90;;;;;;5061399;28;20229;-90
2024/01/20 06:49:40;;;;;;;27.57;11.67;;;-3.70;99.90;;;;;;5059028;28;20796;-88
2024/01/20 06:52:06;;;;;;;24.00;12.20;;;-3.70;99.90;;;;;;5047572;28;20487;-86
2024/01/20 06:54:31;;;;;;;21.80;12.00;;;-3.70;99.90;;;;;;5058449;28;20182;-87
2024/01/20 06:56:57;;;;;;;19.43;11.83;;;-3.70;99.90;;;;;;5039913;28;20485;-88
2024/01/20 06:59:22;;;;;;;28.77;12.20;;;-3.70;99.90;;;;;;5040136;28;20234;-89
2024/01/20 07:01:49;;;;;;;24.10;12.93;;;-3.70;99.90;;;;;;5057464;28;20972;-87
2024/01/20 07:04:14;;;;;;;25.33;12.63;;;-3.70;99.90;;;;;;5040241;28;20209;-87
2024/01/20 07:06:40;;;;;;;29.50;12.70;;;-3.70;99.90;;;;;;5056650;28;20182;-87
2024/01/20 07:09:05;;;;;;;30.07;13.70;;;-3.80;99.90;;;;;;5056680;28;20340;-89
2024/01/20 07:11:32;;;;;;;24.43;13.23;;;-3.70;99.90;;;;;;5038139;28;20209;-87
2024/01/20 07:13:57;;;;;;;24.33;13.00;;;-3.80;99.90;;;;;;5045319;28;20188;-89
2024/01/20 07:16:23;;;;;;;34.27;14.70;;;-3.70;99.90;;;;;;5035245;28;20676;-87
2024/01/20 07:18:48;;;;;;;27.90;12.20;;;-3.80;99.90;;;;;;5050827;28;20274;-87
2024/01/20 07:21:14;;;;;;;26.83;12.00;;;-3.80;99.90;;;;;;5054199;28;20772;-87
2024/01/20 07:23:40;;;;;;;31.03;13.73;;;-3.80;99.90;;;;;;5036054;28;20695;-89
2024/01/20 07:26:05;;;;;;;29.40;13.73;;;-3.80;99.90;;;;;;5036998;28;20179;-88
2024/01/20 07:28:31;;;;;;;27.80;13.80;;;-3.60;99.90;;;;;;5036415;28;20183;-89
2024/01/20 07:30:57;;;;;;;26.73;13.23;;;-3.50;99.90;;;;;;5036843;28;20263;-88
2024/01/20 07:33:22;;;;;;;23.00;11.97;;;-3.40;99.90;;;;;;5037127;28;20197;-88
2024/01/20 07:35:50;;;;;;;25.53;13.10;;;-3.30;99.90;;;;;;5052109;28;20206;-87
2024/01/20 07:38:16;;;;;;;25.50;13.18;;;-3.20;99.90;;;;;;5053874;28;20603;-88
2024/01/20 07:40:42;;;;;;;22.90;10.45;;;-3.10;99.90;;;;;;5037266;28;20188;-87
2024/01/20 07:43:08;;;;;;;29.63;13.37;;;-3.10;99.50;;;;;;5054447;28;20652;-86
2024/01/20 07:45:34;;;;;;;24.23;12.10;;;-3.00;13.20;;;;;;5034045;28;20636;-87
2024/01/20 07:48:00;;;;;;;25.20;11.57;;;-2.90;1.00;;;;;;5052583;28;20189;-88
2024/01/20 07:50:26;;;;;;;19.27;10.18;;;-2.90;1.00;;;;;;5037054;28;20499;-89
2024/01/20 07:52:51;;;;;;;21.58;11.68;;;-2.80;1.00;;;;;;5037657;28;20201;-89
2024/01/20 07:55:17;;;;;;;23.47;10.90;;;-2.80;1.00;;;;;;5025788;28;20559;-88
2024/01/20 07:57:42;;;;;;;18.67;11.33;;;-2.70;99.90;;;;;;5035326;28;20244;-88
2024/01/20 08:00:13;;;;;;;25.87;12.40;;;-2.60;99.90;;;;;;5042122;28;20197;-88
2024/01/20 08:02:39;;;;;;;28.30;13.05;;;-2.50;99.90;;;;;;5052418;28;20301;-88
2024/01/20 08:05:05;;;;;;;24.98;10.27;;;-2.50;1.00;;;;;;5054608;28;20197;-87
2024/01/20 08:07:32;;;;;;;24.08;11.32;;;-2.40;99.90;;;;;;5036780;28;20190;-87
2024/01/20 08:09:58;;;;;;;24.30;11.63;;;-2.30;99.90;;;;;;5052792;28;20183;-87
2024/01/20 08:12:23;;;;;;;24.70;10.87;;;-1.80;59.50;;;;;;5048414;28;20209;-89
2024/01/20 08:14:49;;;;;;;22.13;11.90;;;-0.40;99.90;;;;;;5033622;28;20194;-89
2024/01/20 08:17:14;;;;;;;28.87;13.13;;;0.30;99.90;;;;;;5050793;28;20220;-90
2024/01/20 08:19:40;;;;;;;20.00;13.07;;;1.10;1.00;;;;;;5038263;28;20216;-89
2024/01/20 08:22:09;;;;;;;28.13;15.17;;;1.90;99.90;;;;;;5034975;28;20197;-90
2024/01/20 08:24:35;;;;;;;31.08;17.77;;;1.80;1.00;;;;;;5050356;28;20198;-91
2024/01/20 08:27:02;;;;;;;32.57;19.77;;;2.00;1.00;;;;;;5034021;28;20336;-89
2024/01/20 08:29:28;;;;;;;25.23;15.95;;;1.20;1.00;;;;;;5052463;28;20185;-88
2024/01/20 08:31:53;;;;;;;22.83;14.53;;;0.90;99.90;;;;;;5047961;28;20556;-89
2024/01/20 08:34:25;;;;;;;20.33;13.47;;;1.10;99.90;;;;;;5029685;28;20213;-89
2024/01/20 08:36:57;;;;;;;21.92;12.68;;;2.20;1.00;;;;;;5049399;28;20201;-87
2024/01/20 08:39:42;;;;;;;18.17;12.20;;;4.00;99.90;;;;;;5035297;28;20265;-86
2024/01/20 08:42:08;;;;;;;17.70;11.20;;;5.90;99.90;;;;;;5032462;28;20463;-87
2024/01/20 08:44:46;;;;;;;18.87;12.97;;;7.30;99.90;;;;;;5033688;28;20468;-85
2024/01/20 08:47:14;;;;;;;18.17;13.40;;;8.20;99.90;;;;;;5037202;28;20216;-87
2024/01/20 08:49:40;;;;;;;21.20;13.17;;;9.00;99.90;;;;;;5032161;28;20799;-86
2024/01/20 08:52:10;;;;;;;23.07;16.10;;;9.80;99.90;;;;;;5035051;28;20455;-85
2024/01/20 08:54:51;;;;;;;21.90;14.60;;;10.40;99.90;;;;;;5025174;28;20193;-85
2024/01/20 08:57:25;;;;;;;16.17;11.50;;;10.90;99.90;;;;;;5035672;28;21046;-87
2024/01/20 08:59:53;;;;;;;18.77;13.47;;;11.40;99.90;;;;;;5032062;28;20522;-87
2024/01/20 09:02:30;;;;;;;17.93;11.80;;;12.00;99.90;;;;;;5045522;28;20574;-86
2024/01/20 09:04:57;;;;;;;17.80;12.17;;;12.50;99.90;;;;;;5039957;28;20551;-86
2024/01/20 09:07:25;;;;;;;15.70;11.97;;;12.90;99.90;;;;;;5039055;28;20433;-86
2024/01/20 09:09:56;;;;;;;19.40;13.77;;;13.30;99.90;;;;;;5031871;28;20436;-84
2024/01/20 09:12:25;;;;;;;17.73;12.10;;;13.70;99.90;;;;;;5033275;28;20487;-88
2024/01/20 09:14:59;;;;;;;17.00;11.97;;;14.00;99.90;;;;;;5041320;28;20451;-87
2024/01/20 09:17:42;;;;;;;21.63;15.10;;;14.00;99.90;;;;;;5026677;28;20522;-86
2024/01/20 09:20:39;;;;;;;18.87;13.53;;;13.50;99.90;;;;;;5042691;28;20805;-85
2024/01/20 09:23:07;;;;;;;21.07;15.60;;;12.60;99.90;;;;;;5016313;28;20457;-87
2024/01/20 09:25:35;;;;;;;22.43;16.37;;;11.50;99.90;;;;;;5045043;28;20519;-86
2024/01/20 09:28:12;;;;;;;19.53;14.30;;;9.80;99.90;;;;;;5034035;28;20433;-85
2024/01/20 09:30:46;;;;;;;25.67;13.67;;;8.70;99.90;;;;;;5029258;28;20873;-85
2024/01/20 09:33:12;;;;;;;24.97;18.43;;;7.80;99.90;;;;;;5028988;28;20472;-86
2024/01/20 09:35:40;;;;;;;21.80;16.60;;;7.00;99.90;;;;;;5049399;28;20425;-86
2024/01/20 09:38:08;;;;;;;29.38;21.50;;;6.20;99.90;;;;;;5042433;28;20183;-85
2024/01/20 09:40:35;;;;;;;22.60;15.65;;;5.50;99.90;;;;;;5028563;28;20205;-85
2024/01/20 09:43:09;;;;;;;22.65;15.10;;;4.80;99.90;;;;;;5032145;28;20201;-87
2024/01/20 09:45:40;;;;;;;22.90;14.55;;;4.20;99.90;;;;;;5030768;28;20189;-88
2024/01/20 09:48:15;;;;;;;24.10;14.07;;;3.50;99.90;;;;;;5027035;28;20269;-88
2024/01/20 09:50:44;;;;;;;19.08;12.18;;;3.10;99.90;;;;;;5025003;28;20183;-88
2024/01/20 09:53:14;;;;;;;19.88;11.10;;;2.70;99.90;;;;;;5039928;28;20206;-88
2024/01/20 09:55:44;;;;;;;22.27;12.80;;;2.50;99.90;;;;;;5030878;28;20186;-87
2024/01/20 09:58:29;;;;;;;25.35;13.50;;;2.30;99.90;;;;;;5025604;28;20372;-87
2024/01/20 10:00:55;;;;;;;22.67;14.48;;;2.10;99.90;;;;;;5040427;28;20183;-88
2024/01/20 10:03:28;;;;;;;39.38;23.48;;;2.00;99.90;;;;;;5030647;28;20224;-88
2024/01/20 10:06:00;;;;;;;57.92;32.42;;;1.90;99.90;;;;;;5033213;28;20183;-89
2024/01/20 10:08:26;;;;;;;23.40;17.25;;;1.90;99.90;;;;;;5036660;28;20182;-87
2024/01/20 10:11:09;;;;;;;29.37;16.20;;;1.90;99.90;;;;;;5054870;28;20376;-89
2024/01/20 10:13:38;;;;;;;20.80;13.60;;;1.80;99.90;;;;;;5028831;28;20597;-88
2024/01/20 10:16:09;;;;;;;24.50;17.30;;;1.80;99.90;;;;;;5037878;28;20206;-88
2024/01/20 10:18:38;;;;;;;25.00;14.00;;;1.80;99.90;;;;;;5035038;28;20182;-89
2024/01/20 10:21:15;;;;;;;23.75;15.05;;;1.80;99.90;;;;;;5029447;28;20214;-88
2024/01/20 10:24:04;;;;;;;22.73;11.48;;;1.80;99.90;;;;;;5037069;28;20224;-88
2024/01/20 10:26:30;;;;;;;20.20;12.15;;;1.80;99.90;;;;;;5026079;28;20205;-89
2024/01/20 10:28:56;;;;;;;21.60;14.27;;;1.60;99.90;;;;;;5039480;28;20178;-89
2024/01/20 10:31:21;;;;;;;17.17;11.20;;;1.40;99.90;;;;;;5048999;28;20210;-89
2024/01/20 10:34:02;;;;;;;19.40;12.50;;;1.30;99.90;;;;;;5029710;28;20719;-90
2024/01/20 10:36:34;;;;;;;20.77;12.57;;;1.30;99.90;;;;;;5051223;28;20246;-88
2024/01/20 10:39:23;;;;;;;19.35;12.82;;;1.40;99.90;;;;;;5036464;28;20189;-89
2024/01/20 10:42:16;;;;;;;18.95;11.77;;;1.40;99.90;;;;;;5050743;28;20349;-89
2024/01/20 10:45:04;;;;;;;21.13;13.65;;;1.40;99.90;;;;;;5047981;28;20201;-90
2024/01/20 10:47:44;;;;;;;16.50;11.23;;;1.40;99.90;;;;;;5034776;28;20181;-89
2024/01/20 10:50:20;;;;;;;17.13;10.77;;;1.40;99.90;;;;;;5052700;28;20196;-88
2024/01/20 10:52:50;;;;;;;20.55;11.90;;;1.30;99.90;;;;;;5041992;28;20241;-88
2024/01/20 10:55:19;;;;;;;163.40;59.83;;;1.20;99.90;;;;;;5033986;28;20189;-88
2024/01/20 10:57:51;;;;;;;20.88;12.45;;;1.10;99.90;;;;;;5034236;28;20181;-88
2024/01/20 11:00:38;;;;;;;23.90;12.70;;;1.20;99.90;;;;;;5033894;28;20661;-89
2024/01/20 11:03:23;;;;;;;13.40;10.07;;;1.30;99.90;;;;;;5036359;28;20203;-89
2024/01/20 11:05:58;;;;;;;16.30;8.93;;;1.40;99.90;;;;;;5034379;28;20217;-87
2024/01/20 11:08:51;;;;;;;19.40;9.25;;;1.50;99.90;;;;;;5041503;28;20188;-88
2024/01/20 11:11:39;;;;;;;;;;;;;;;;;;;;;
2024/01/20 11:14:48;;;;;;;14.15;9.55;;;1.70;99.90;;;;;;5046344;28;20218;-88
2024/01/20 11:17:22;;;;;;;17.83;11.90;;;1.70;99.90;;;;;;5042440;28;20194;-88
2024/01/20 11:19:54;;;;;;;16.58;10.52;;;1.80;99.90;;;;;;5032999;28;20201;-88
2024/01/20 11:22:39;;;;;;;15.73;9.27;;;1.90;99.90;;;;;;5052693;28;20284;-88
2024/01/20 11:25:06;;;;;;;15.23;8.98;;;2.10;99.90;;;;;;5049013;28;20189;-87
2024/01/20 11:27:57;;;;;;;16.60;10.45;;;2.40;99.90;;;;;;5057680;28;20205;-85
2024/01/20 11:30:36;;;;;;;16.00;9.80;;;3.50;99.90;;;;;;5042244;28;20201;-84
2024/01/20 11:33:12;;;;;;;16.00;9.53;;;5.10;99.90;;;;;;5046554;28;20470;-87
2024/01/20 11:36:02;;;;;;;14.83;9.60;;;7.10;99.90;;;;;;5061878;28;20443;-87
2024/01/20 11:39:00;;;;;;;14.37;10.87;;;8.80;99.90;;;;;;5059176;28;20424;-86
2024/01/20 11:41:28;;;;;;;16.43;10.83;;;10.50;99.90;;;;;;5050895;28;20448;-87
2024/01/20 11:44:25;;;;;;;505.70;321.03;;;11.30;99.90;;;;;;5010324;28;20434;-88
2024/01/20 11:47:47;;;;;;;16.80;10.90;;;11.70;99.90;;;;;;5009259;28;20458;-88
2024/01/20 11:50:34;;;;;;;13.77;9.43;;;11.80;99.90;;;;;;4931842;29;20984;-89
2024/01/20 11:53:38;;;;;;;11.47;9.53;;;11.90;99.90;;;;;;4941076;28;20475;-88
2024/01/20 11:56:07;;;;;;;13.87;9.90;;;12.00;99.90;;;;;;4972183;28;20463;-88
2024/01/20 12:02:00;;;;;;;11.50;8.83;;;13.10;99.90;;;;;;4966450;28;20459;-88
2024/01/20 12:04:55;;;;;;;19.93;17.73;;;12.70;99.90;;;;;;4987672;28;20805;-90
2024/01/20 12:10:27;;;;;;;14.27;9.40;;;13.60;99.90;;;;;;5047100;28;20506;-88
2024/01/20 12:13:33;;;;;;;;;;;;;;;;;;;;;
2024/01/20 12:19:27;;;;;;;16.50;9.97;;;12.80;99.90;;;;;;5041751;28;20444;-89
2024/01/20 12:25:20;;;;;;;12.43;9.10;;;13.60;99.90;;;;;;5052111;28;20525;-86
2024/01/20 12:27:49;;;;;;;11.80;8.60;;;13.30;99.90;;;;;;5042141;28;20493;-89
2024/01/20 12:30:20;;;;;;;12.40;9.60;;;13.70;99.90;;;;;;5031227;28;21047;-89
2024/01/20 12:33:04;;;;;;;12.90;10.13;;;14.40;99.90;;;;;;5030543;28;20501;-89
2024/01/20 12:35:36;;;;;;;12.70;9.40;;;14.00;99.90;;;;;;5027082;28;20959;-88
2024/01/20 12:38:30;;;;;;;10.17;8.20;;;13.00;99.90;;;;;;5029325;28;20456;-88
2024/01/20 12:40:58;;;;;;;12.33;8.70;;;13.80;99.90;;;;;;5029353;28;20996;-91
2024/01/20 12:43:24;;;;;;;12.97;9.93;;;14.10;99.90;;;;;;5031377;28;20428;-89
2024/01/20 12:45:52;;;;;;;17.73;11.93;;;14.40;99.90;;;;;;5047805;28;20524;-89
2024/01/20 12:48:38;;;;;;;20.40;13.37;;;14.70;99.90;;;;;;5050117;28;20186;-89
2024/01/20 12:51:23;;;;;;;11.80;8.90;;;15.10;99.90;;;;;;5047386;28;20441;-87
2024/01/20 12:54:06;;;;;;;13.77;10.57;;;15.60;99.90;;;;;;5032100;28;20464;-89
2024/01/20 12:56:32;;;;;;;13.60;8.23;;;15.80;99.90;;;;;;5028193;28;20432;-90
2024/01/20 12:59:07;;;;;;;10.03;7.97;;;15.80;99.90;;;;;;5026447;28;20436;-90
2024/01/20 13:02:14;;;;;;;9.90;7.73;;;15.80;99.90;;;;;;5049031;28;20455;-88
2024/01/20 13:04:59;;;;;;;10.63;7.57;;;15.80;99.90;;;;;;5033878;28;20452;-90
2024/01/20 13:07:26;;;;;;;9.87;7.40;;;15.10;99.90;;;;;;5027204;28;20539;-90
2024/01/20 13:09:57;;;;;;;10.83;8.33;;;14.40;99.90;;;;;;5029410;28;20521;-89
2024/01/20 13:12:23;;;;;;;11.70;10.50;;;13.70;99.90;;;;;;5026871;28;20556;-91
2024/01/20 13:15:13;;;;;;;;;;;;;;;;;;;;;
2024/01/20 13:18:11;;;;;;;17.83;10.20;;;12.80;99.90;;;;;;5048114;28;20188;-91